Time;durP1;ratioP1;P1;durP2;ratioP2;P2;SDS_P1;SDS_P2;PMS_P1;PMS_P2;Temp;Humidity;BMP_temperature;BMP_pressure;BME280_temperature;BME280_humidity;BME280_pressure;Samples;Min_cycle;Max_cycle;Signal;HPM_P1;HPM_P2
2021/07/03 00:02:24;;;;;;;15.75;8.38;;;;;;;;;;4975546;28;20078;-66
2021/07/03 00:04:51;;;;;;;9.95;8.35;;;;;;;;;;4975608;28;20142;-67
2021/07/03 00:07:18;;;;;;;12.00;8.38;;;;;;;;;;4975806;28;20054;-67
2021/07/03 00:09:44;;;;;;;11.00;8.18;;;;;;;;;;4975862;28;20074;-66
2021/07/03 00:12:11;;;;;;;10.63;8.70;;;;;;;;;;4975218;28;20074;-66
2021/07/03 00:14:38;;;;;;;9.68;8.38;;;;;;;;;;4975587;28;20089;-66
2021/07/03 00:17:04;;;;;;;10.40;7.55;;;;;;;;;;4975356;28;20134;-66
2021/07/03 00:19:31;;;;;;;10.32;8.18;;;;;;;;;;4975907;28;20057;-66
2021/07/03 00:21:58;;;;;;;11.43;8.98;;;;;;;;;;4975158;28;20138;-67
2021/07/03 00:24:24;;;;;;;12.85;8.43;;;;;;;;;;4975044;28;20078;-67
2021/07/03 00:26:51;;;;;;;13.10;9.25;;;;;;;;;;4975212;28;20146;-66
2021/07/03 00:29:17;;;;;;;11.77;8.68;;;;;;;;;;4975389;28;20086;-66
2021/07/03 00:31:44;;;;;;;13.20;8.55;;;;;;;;;;4975204;28;20082;-66
2021/07/03 00:34:10;;;;;;;9.77;8.50;;;;;;;;;;4975182;28;20054;-66
2021/07/03 00:36:37;;;;;;;11.90;9.50;;;;;;;;;;4975284;28;20075;-66
2021/07/03 00:39:04;;;;;;;10.50;8.38;;;;;;;;;;4975062;28;20097;-66
2021/07/03 00:41:30;;;;;;;12.05;9.10;;;;;;;;;;4974984;28;20089;-66
2021/07/03 00:43:57;;;;;;;12.13;8.82;;;;;;;;;;4974763;28;20505;-66
2021/07/03 00:46:24;;;;;;;10.45;8.60;;;;;;;;;;4974923;28;20450;-66
2021/07/03 00:48:50;;;;;;;11.50;8.32;;;;;;;;;;4974969;28;20395;-66
2021/07/03 00:51:17;;;;;;;11.52;8.68;;;;;;;;;;4974931;28;20370;-67
2021/07/03 00:53:43;;;;;;;12.30;8.63;;;;;;;;;;4974864;28;20082;-66
2021/07/03 00:56:10;;;;;;;11.20;8.27;;;;;;;;;;4974783;28;20078;-66
2021/07/03 00:58:36;;;;;;;9.70;8.25;;;;;;;;;;4973669;28;20050;-67
2021/07/03 01:01:03;;;;;;;10.68;8.65;;;;;;;;;;4974529;28;20075;-67
2021/07/03 01:03:29;;;;;;;11.63;8.60;;;;;;;;;;4974556;28;20458;-66
2021/07/03 01:05:56;;;;;;;10.60;8.30;;;;;;;;;;4974587;28;20540;-66
2021/07/03 01:08:22;;;;;;;11.18;8.65;;;;;;;;;;4974682;28;20093;-66
2021/07/03 01:10:49;;;;;;;12.15;9.07;;;;;;;;;;4974603;28;20151;-66
2021/07/03 01:13:15;;;;;;;13.25;8.85;;;;;;;;;;4974429;28;20077;-66
2021/07/03 01:15:42;;;;;;;11.23;8.10;;;;;;;;;;4974525;28;20081;-66
2021/07/03 01:18:09;;;;;;;12.20;8.50;;;;;;;;;;4974471;28;20475;-66
2021/07/03 01:20:36;;;;;;;11.63;8.95;;;;;;;;;;4974334;28;20081;-66
2021/07/03 01:23:03;;;;;;;12.73;8.93;;;;;;;;;;4974381;28;20121;-66
2021/07/03 01:25:29;;;;;;;10.65;8.43;;;;;;;;;;4974152;28;20078;-66
2021/07/03 01:28:04;;;;;;;12.18;8.75;;;;;;;;;;4974188;28;20545;-68
2021/07/03 01:30:31;;;;;;;11.52;9.25;;;;;;;;;;4974354;28;20455;-66
2021/07/03 01:32:58;;;;;;;11.00;8.88;;;;;;;;;;4974063;28;20070;-66
2021/07/03 01:35:29;;;;;;;15.38;9.40;;;;;;;;;;4973213;28;20086;-66
2021/07/03 01:37:56;;;;;;;16.48;10.60;;;;;;;;;;4974028;28;20090;-67
2021/07/03 01:40:24;;;;;;;16.65;11.88;;;;;;;;;;4972790;28;20514;-66
2021/07/03 01:42:51;;;;;;;14.77;11.10;;;;;;;;;;4973923;28;20087;-66
2021/07/03 01:45:17;;;;;;;21.50;14.55;;;;;;;;;;4973686;28;20133;-66
2021/07/03 01:47:45;;;;;;;17.63;12.13;;;;;;;;;;4973860;28;20086;-66
2021/07/03 01:50:13;;;;;;;16.23;11.73;;;;;;;;;;4974083;28;20115;-66
2021/07/03 01:52:39;;;;;;;18.75;10.38;;;;;;;;;;4973755;28;20078;-66
2021/07/03 01:55:08;;;;;;;14.30;10.45;;;;;;;;;;4973546;28;20057;-66
2021/07/03 01:57:35;;;;;;;19.40;10.77;;;;;;;;;;4973782;28;20086;-66
2021/07/03 02:00:08;;;;;;;13.32;9.48;;;;;;;;;;4973483;28;20086;-66
2021/07/03 02:02:34;;;;;;;12.38;10.10;;;;;;;;;;4973160;28;20086;-66
2021/07/03 02:05:03;;;;;;;12.80;10.55;;;;;;;;;;4973441;28;20101;-66
2021/07/03 02:07:29;;;;;;;12.40;9.55;;;;;;;;;;4973591;28;20093;-66
2021/07/03 02:09:56;;;;;;;12.77;9.52;;;;;;;;;;4973792;28;20085;-66
2021/07/03 02:12:22;;;;;;;16.20;9.38;;;;;;;;;;4973108;28;20074;-66
2021/07/03 02:14:49;;;;;;;12.15;9.18;;;;;;;;;;4973425;28;20338;-65
2021/07/03 02:17:15;;;;;;;12.40;9.40;;;;;;;;;;4973417;28;20101;-66
2021/07/03 02:19:42;;;;;;;13.18;9.38;;;;;;;;;;4973234;28;20525;-66
2021/07/03 02:22:09;;;;;;;13.82;9.57;;;;;;;;;;4973090;28;20074;-67
2021/07/03 02:24:35;;;;;;;15.55;10.05;;;;;;;;;;4973132;28;20526;-66
2021/07/03 02:27:02;;;;;;;14.07;10.00;;;;;;;;;;4973267;28;20433;-66
2021/07/03 02:29:29;;;;;;;15.05;9.60;;;;;;;;;;4973186;28;20085;-66
2021/07/03 02:31:56;;;;;;;13.05;9.98;;;;;;;;;;4973161;28;20089;-66
2021/07/03 02:34:22;;;;;;;15.68;10.57;;;;;;;;;;4971889;28;20081;-66
2021/07/03 02:36:49;;;;;;;13.23;8.90;;;;;;;;;;4973189;28;20082;-66
2021/07/03 02:39:15;;;;;;;11.98;9.32;;;;;;;;;;4972798;28;20093;-66
2021/07/03 02:41:42;;;;;;;13.65;9.95;;;;;;;;;;4972926;28;20145;-66
2021/07/03 02:44:08;;;;;;;13.20;8.82;;;;;;;;;;4972915;28;20085;-65
2021/07/03 02:46:35;;;;;;;16.08;10.02;;;;;;;;;;4972878;28;20400;-66
2021/07/03 02:49:01;;;;;;;13.23;9.57;;;;;;;;;;4973322;28;20074;-66
2021/07/03 02:51:28;;;;;;;14.27;9.93;;;;;;;;;;4972914;28;20055;-65
2021/07/03 02:53:54;;;;;;;12.30;9.50;;;;;;;;;;4972958;28;20479;-66
2021/07/03 02:56:21;;;;;;;16.15;10.05;;;;;;;;;;4972793;28;20109;-66
2021/07/03 02:58:47;;;;;;;14.82;9.85;;;;;;;;;;4972953;28;20090;-66
2021/07/03 03:01:14;;;;;;;13.75;10.07;;;;;;;;;;4972147;28;20062;-66
2021/07/03 03:03:43;;;;;;;14.18;10.02;;;;;;;;;;4972995;28;20073;-66
2021/07/03 03:06:12;;;;;;;13.23;9.70;;;;;;;;;;4972628;28;20105;-66
2021/07/03 03:08:39;;;;;;;12.32;9.50;;;;;;;;;;4973029;28;20090;-66
2021/07/03 03:11:06;;;;;;;13.82;9.57;;;;;;;;;;4971321;28;20129;-67
2021/07/03 03:13:32;;;;;;;12.27;9.75;;;;;;;;;;4972609;28;20093;-66
2021/07/03 03:15:59;;;;;;;16.02;10.80;;;;;;;;;;4972730;28;20133;-66
2021/07/03 03:18:25;;;;;;;14.32;10.75;;;;;;;;;;4972668;28;20086;-66
2021/07/03 03:20:52;;;;;;;15.73;10.70;;;;;;;;;;4972689;28;20086;-67
2021/07/03 03:23:19;;;;;;;14.60;9.95;;;;;;;;;;4972463;28;20128;-66
2021/07/03 03:25:45;;;;;;;13.73;10.77;;;;;;;;;;4973015;28;20500;-66
2021/07/03 03:28:12;;;;;;;15.18;10.10;;;;;;;;;;4972541;28;20137;-65
2021/07/03 03:30:39;;;;;;;14.93;10.80;;;;;;;;;;4972623;28;20096;-67
2021/07/03 03:33:05;;;;;;;14.60;9.77;;;;;;;;;;4972385;28;20093;-65
2021/07/03 03:35:32;;;;;;;14.65;10.00;;;;;;;;;;4972521;28;20513;-66
2021/07/03 03:37:58;;;;;;;15.73;10.23;;;;;;;;;;4972373;28;20513;-66
2021/07/03 03:40:27;;;;;;;14.63;8.77;;;;;;;;;;4972363;28;20086;-65
2021/07/03 03:42:54;;;;;;;17.33;9.57;;;;;;;;;;4972181;28;20086;-66
2021/07/03 03:45:21;;;;;;;17.13;9.43;;;;;;;;;;4972296;28;20054;-65
2021/07/03 03:47:48;;;;;;;14.55;9.93;;;;;;;;;;4972664;28;20086;-65
2021/07/03 03:50:15;;;;;;;14.23;9.68;;;;;;;;;;4972162;28;20054;-66
2021/07/03 03:52:41;;;;;;;14.13;9.80;;;;;;;;;;4972645;28;20075;-65
2021/07/03 03:55:09;;;;;;;15.07;10.05;;;;;;;;;;4972141;28;20089;-65
2021/07/03 03:57:35;;;;;;;14.20;9.07;;;;;;;;;;4972906;28;20090;-65
2021/07/03 04:00:04;;;;;;;13.73;9.50;;;;;;;;;;4975751;28;20202;-65
2021/07/03 04:02:31;;;;;;;12.95;9.32;;;;;;;;;;4975561;28;20101;-65
2021/07/03 04:04:57;;;;;;;11.88;9.20;;;;;;;;;;4975490;28;20134;-65
2021/07/03 04:07:24;;;;;;;13.23;9.40;;;;;;;;;;4975491;28;20526;-65
2021/07/03 04:09:51;;;;;;;11.38;8.88;;;;;;;;;;4975816;28;20055;-66
2021/07/03 04:12:17;;;;;;;17.30;10.60;;;;;;;;;;4975498;28;20093;-65
2021/07/03 04:14:44;;;;;;;12.20;9.32;;;;;;;;;;4971134;28;20085;-66
2021/07/03 04:17:11;;;;;;;10.45;8.88;;;;;;;;;;4974930;28;20090;-66
2021/07/03 04:19:37;;;;;;;12.70;9.48;;;;;;;;;;4974559;28;20548;-73
2021/07/03 04:22:04;;;;;;;11.45;9.27;;;;;;;;;;4974148;28;20200;-72
2021/07/03 04:24:31;;;;;;;14.45;9.40;;;;;;;;;;4975263;28;20093;-72
2021/07/03 04:26:57;;;;;;;13.52;9.63;;;;;;;;;;4973880;28;20085;-72
2021/07/03 04:29:27;;;;;;;12.25;9.13;;;;;;;;;;4975278;28;20065;-72
2021/07/03 04:31:53;;;;;;;15.35;9.23;;;;;;;;;;4975082;28;20078;-71
2021/07/03 04:34:20;;;;;;;13.60;9.82;;;;;;;;;;4973459;28;20445;-72
2021/07/03 04:36:47;;;;;;;12.07;8.95;;;;;;;;;;4974007;28;20058;-72
2021/07/03 04:39:13;;;;;;;15.68;9.88;;;;;;;;;;4974726;28;20137;-72
2021/07/03 04:41:40;;;;;;;13.80;9.02;;;;;;;;;;4975000;28;20094;-72
2021/07/03 04:44:07;;;;;;;11.35;9.27;;;;;;;;;;4973590;28;20142;-65
2021/07/03 04:46:34;;;;;;;14.25;9.75;;;;;;;;;;4974880;28;20082;-66
2021/07/03 04:49:01;;;;;;;12.32;8.65;;;;;;;;;;4974841;28;20058;-72
2021/07/03 04:51:27;;;;;;;13.80;8.93;;;;;;;;;;4973758;28;20051;-72
2021/07/03 04:53:54;;;;;;;12.93;9.43;;;;;;;;;;4959145;28;20430;-71
2021/07/03 04:56:21;;;;;;;11.27;8.85;;;;;;;;;;4955478;28;20079;-70
2021/07/03 04:58:48;;;;;;;14.20;9.30;;;;;;;;;;4955654;28;20528;-71
2021/07/03 05:01:14;;;;;;;16.23;9.60;;;;;;;;;;4938220;29;20090;-71
2021/07/03 05:03:41;;;;;;;12.57;9.25;;;;;;;;;;4955454;28;20051;-72
2021/07/03 05:06:07;;;;;;;11.73;8.98;;;;;;;;;;4954071;28;20081;-70
2021/07/03 05:08:35;;;;;;;12.25;9.18;;;;;;;;;;4955093;28;20094;-71
2021/07/03 05:11:02;;;;;;;12.23;9.52;;;;;;;;;;4954296;28;20125;-72
2021/07/03 05:13:28;;;;;;;12.02;9.45;;;;;;;;;;4966571;28;20051;-71
2021/07/03 05:15:55;;;;;;;11.85;9.05;;;;;;;;;;4972608;28;20125;-71
2021/07/03 05:18:22;;;;;;;10.80;8.52;;;;;;;;;;4974534;28;20129;-72
2021/07/03 05:20:49;;;;;;;16.00;9.93;;;;;;;;;;4974480;28;20054;-70
2021/07/03 05:23:15;;;;;;;13.98;9.02;;;;;;;;;;4974389;28;20093;-71
2021/07/03 05:25:44;;;;;;;13.45;9.38;;;;;;;;;;4973951;28;20086;-71
2021/07/03 05:28:13;;;;;;;13.20;8.93;;;;;;;;;;4974202;28;20082;-72
2021/07/03 05:30:41;;;;;;;14.57;8.85;;;;;;;;;;4973332;28;20082;-71
2021/07/03 05:33:08;;;;;;;13.82;10.27;;;;;;;;;;4974034;28;20090;-70
2021/07/03 05:35:35;;;;;;;11.80;8.95;;;;;;;;;;4974285;28;20133;-70
2021/07/03 05:38:01;;;;;;;12.30;8.73;;;;;;;;;;4974027;28;20141;-70
2021/07/03 05:40:28;;;;;;;13.45;9.93;;;;;;;;;;4973987;28;20090;-70
2021/07/03 05:42:55;;;;;;;10.23;8.25;;;;;;;;;;4973077;28;20557;-69
2021/07/03 05:45:22;;;;;;;13.38;9.30;;;;;;;;;;4973854;28;20105;-70
2021/07/03 05:47:52;;;;;;;9.45;8.00;;;;;;;;;;4974008;28;20098;-72
2021/07/03 05:50:21;;;;;;;12.07;8.30;;;;;;;;;;4973881;28;20082;-70
2021/07/03 05:52:47;;;;;;;11.70;8.43;;;;;;;;;;4972700;28;20058;-72
2021/07/03 05:55:14;;;;;;;10.55;8.23;;;;;;;;;;4973797;28;20098;-72
2021/07/03 05:57:41;;;;;;;12.05;9.52;;;;;;;;;;4974078;28;20510;-70
2021/07/03 06:00:15;;;;;;;12.00;7.95;;;;;;;;;;4973423;28;20094;-73
2021/07/03 06:02:42;;;;;;;11.13;8.38;;;;;;;;;;4973629;28;20039;-72
2021/07/03 06:05:10;;;;;;;11.52;8.57;;;;;;;;;;4973346;28;20096;-71
2021/07/03 06:07:36;;;;;;;9.27;7.30;;;;;;;;;;4956612;28;20093;-71
2021/07/03 06:10:04;;;;;;;11.43;7.85;;;;;;;;;;4973443;28;20051;-71
2021/07/03 06:12:30;;;;;;;10.85;8.15;;;;;;;;;;4970715;28;20114;-65
2021/07/03 06:14:57;;;;;;;9.82;7.55;;;;;;;;;;4971491;28;20098;-65
2021/07/03 06:17:23;;;;;;;10.05;7.97;;;;;;;;;;4971489;28;20082;-64
2021/07/03 06:19:50;;;;;;;10.75;7.95;;;;;;;;;;4971613;28;20100;-66
2021/07/03 06:22:17;;;;;;;8.73;7.45;;;;;;;;;;4971022;28;20090;-65
2021/07/03 06:24:44;;;;;;;11.07;8.18;;;;;;;;;;4971305;28;20127;-66
2021/07/03 06:27:11;;;;;;;9.20;7.22;;;;;;;;;;4970802;28;20113;-65
2021/07/03 06:29:38;;;;;;;9.13;7.28;;;;;;;;;;4971563;28;20050;-66
2021/07/03 06:32:07;;;;;;;10.13;7.85;;;;;;;;;;4971102;28;20536;-66
2021/07/03 06:34:34;;;;;;;15.35;9.27;;;;;;;;;;4971447;28;20043;-65
2021/07/03 06:37:01;;;;;;;10.15;7.35;;;;;;;;;;4971206;28;20090;-66
2021/07/03 06:39:27;;;;;;;9.48;6.93;;;;;;;;;;4970754;28;20089;-66
2021/07/03 06:41:54;;;;;;;11.38;7.78;;;;;;;;;;4970958;28;20079;-66
2021/07/03 06:44:20;;;;;;;9.60;7.00;;;;;;;;;;4970585;28;20093;-66
2021/07/03 06:46:47;;;;;;;8.35;7.10;;;;;;;;;;4969401;28;20133;-66
2021/07/03 06:49:15;;;;;;;9.98;7.20;;;;;;;;;;4968970;28;20054;-66
2021/07/03 06:51:42;;;;;;;9.70;7.32;;;;;;;;;;4970286;28;20055;-66
2021/07/03 06:54:09;;;;;;;9.43;6.63;;;;;;;;;;4969660;28;20078;-66
2021/07/03 06:56:36;;;;;;;8.40;6.72;;;;;;;;;;4971251;28;20478;-65
2021/07/03 06:59:02;;;;;;;9.70;7.95;;;;;;;;;;4971253;28;20082;-66
2021/07/03 07:01:29;;;;;;;7.95;7.03;;;;;;;;;;4969817;28;20671;-66
2021/07/03 07:03:56;;;;;;;8.73;6.03;;;;;;;;;;4970757;28;20046;-66
2021/07/03 07:06:22;;;;;;;8.98;7.07;;;;;;;;;;4970681;28;20125;-66
2021/07/03 07:08:49;;;;;;;8.10;6.72;;;;;;;;;;4971059;28;20142;-65
2021/07/03 07:11:16;;;;;;;7.80;6.35;;;;;;;;;;4972308;28;20054;-65
2021/07/03 07:13:42;;;;;;;8.48;6.63;;;;;;;;;;4973128;28;20082;-65
2021/07/03 07:16:09;;;;;;;9.02;6.40;;;;;;;;;;4972739;28;20498;-70
2021/07/03 07:18:35;;;;;;;7.13;6.18;;;;;;;;;;4972893;28;20054;-65
2021/07/03 07:21:02;;;;;;;7.13;5.78;;;;;;;;;;4972658;28;20094;-66
2021/07/03 07:23:29;;;;;;;9.23;6.50;;;;;;;;;;4972659;28;20137;-65
2021/07/03 07:25:55;;;;;;;7.88;6.47;;;;;;;;;;4972770;28;20459;-66
2021/07/03 07:28:22;;;;;;;6.95;6.25;;;;;;;;;;4972787;28;20471;-66
2021/07/03 07:30:48;;;;;;;7.40;6.38;;;;;;;;;;4957573;28;20550;-70
2021/07/03 07:33:15;;;;;;;6.80;6.10;;;;;;;;;;4953538;28;20083;-73
2021/07/03 07:35:43;;;;;;;7.07;5.60;;;;;;;;;;4957073;28;20082;-71
2021/07/03 07:38:10;;;;;;;7.55;5.85;;;;;;;;;;4971964;28;20051;-69
2021/07/03 07:40:36;;;;;;;6.93;6.07;;;;;;;;;;4976426;28;20510;-71
2021/07/03 07:43:03;;;;;;;6.70;6.00;;;;;;;;;;4975894;28;20078;-66
2021/07/03 07:45:31;;;;;;;7.97;6.45;;;;;;;;;;4976173;28;20093;-66
2021/07/03 07:47:57;;;;;;;7.25;6.55;;;;;;;;;;4975855;28;20089;-67
2021/07/03 07:50:24;;;;;;;6.25;5.55;;;;;;;;;;4975484;28;20101;-65
2021/07/03 07:52:50;;;;;;;6.97;5.35;;;;;;;;;;4973903;28;20097;-65
2021/07/03 07:55:17;;;;;;;7.07;5.88;;;;;;;;;;4974182;28;20082;-65
2021/07/03 07:57:43;;;;;;;6.05;5.30;;;;;;;;;;4976106;28;20082;-65
2021/07/03 08:00:11;;;;;;;9.02;6.63;;;;;;;;;;4975813;28;20062;-65
2021/07/03 08:02:37;;;;;;;7.72;5.57;;;;;;;;;;4975562;28;20506;-65
2021/07/03 08:05:05;;;;;;;7.65;6.85;;;;;;;;;;4975923;28;20043;-66
2021/07/03 08:07:31;;;;;;;9.43;6.40;;;;;;;;;;4975805;28;20097;-65
2021/07/03 08:09:58;;;;;;;8.50;6.40;;;;;;;;;;4975763;28;20090;-65
2021/07/03 08:12:24;;;;;;;11.23;6.32;;;;;;;;;;4975633;28;20126;-65
2021/07/03 08:14:51;;;;;;;7.97;5.55;;;;;;;;;;4975486;28;20461;-66
2021/07/03 08:17:18;;;;;;;6.57;5.47;;;;;;;;;;4975531;28;20490;-66
2021/07/03 08:19:44;;;;;;;6.82;5.38;;;;;;;;;;4975523;28;20061;-66
2021/07/03 08:22:11;;;;;;;6.18;5.57;;;;;;;;;;4975360;28;20054;-66
2021/07/03 08:24:37;;;;;;;8.55;5.75;;;;;;;;;;4975315;28;20082;-65
2021/07/03 08:27:04;;;;;;;7.35;5.80;;;;;;;;;;4975384;28;20125;-66
2021/07/03 08:29:30;;;;;;;7.65;6.07;;;;;;;;;;4975527;28;20139;-65
2021/07/03 08:31:57;;;;;;;10.18;5.68;;;;;;;;;;4975250;28;20082;-65
2021/07/03 08:34:24;;;;;;;8.40;5.57;;;;;;;;;;4973994;28;20461;-65
2021/07/03 08:36:50;;;;;;;6.55;5.43;;;;;;;;;;4975120;28;20138;-65
2021/07/03 08:39:17;;;;;;;6.50;5.53;;;;;;;;;;4975260;28;20082;-66
2021/07/03 08:41:43;;;;;;;7.05;5.63;;;;;;;;;;4975077;28;20544;-66
2021/07/03 08:44:10;;;;;;;5.88;4.82;;;;;;;;;;4973575;28;20078;-66
2021/07/03 08:46:37;;;;;;;6.90;5.70;;;;;;;;;;4975127;28;20129;-65
2021/07/03 08:49:04;;;;;;;6.72;5.30;;;;;;;;;;4975125;28;20051;-66
2021/07/03 08:51:31;;;;;;;7.13;5.43;;;;;;;;;;4974986;28;20090;-66
2021/07/03 08:53:58;;;;;;;5.88;5.32;;;;;;;;;;4972780;28;20483;-66
2021/07/03 08:56:24;;;;;;;6.60;5.90;;;;;;;;;;4967453;28;20080;-72
2021/07/03 08:58:51;;;;;;;6.47;4.88;;;;;;;;;;4960754;28;20078;-70
2021/07/03 09:01:18;;;;;;;4.53;4.10;;;;;;;;;;4967415;28;20134;-72
2021/07/03 09:03:52;;;;;;;7.65;4.70;;;;;;;;;;4979757;28;20054;-66
2021/07/03 09:06:31;;;;;;;6.28;5.10;;;;;;;;;;4983741;28;20125;-70
2021/07/03 09:08:58;;;;;;;6.07;4.70;;;;;;;;;;4982250;28;20653;-69
2021/07/03 09:11:25;;;;;;;6.18;4.70;;;;;;;;;;4984171;28;20397;-70
2021/07/03 09:14:06;;;;;;;7.72;5.63;;;;;;;;;;4980377;28;20101;-74
2021/07/03 09:16:36;;;;;;;5.68;5.05;;;;;;;;;;4953929;28;20085;-70
2021/07/03 09:19:04;;;;;;;6.20;5.00;;;;;;;;;;4981883;28;20417;-68
2021/07/03 09:21:31;;;;;;;6.65;4.88;;;;;;;;;;4980813;28;20042;-68
2021/07/03 09:23:59;;;;;;;5.57;5.03;;;;;;;;;;4979304;28;20051;-68
2021/07/03 09:26:26;;;;;;;5.10;4.60;;;;;;;;;;5005265;23;20047;-69
2021/07/03 09:28:53;;;;;;;7.18;4.05;;;;;;;;;;4989515;28;20042;-71
2021/07/03 09:31:19;;;;;;;4.80;4.30;;;;;;;;;;4991854;28;20129;-71
2021/07/03 09:33:49;;;;;;;5.80;5.03;;;;;;;;;;4992396;28;20089;-70
2021/07/03 09:36:27;;;;;;;5.70;5.10;;;;;;;;;;4991876;28;20081;-70
2021/07/03 09:38:55;;;;;;;5.82;4.85;;;;;;;;;;4990698;28;20073;-70
2021/07/03 09:41:31;;;;;;;7.75;4.60;;;;;;;;;;4990438;28;20085;-72
2021/07/03 09:44:00;;;;;;;5.43;4.93;;;;;;;;;;4974795;28;20054;-69
2021/07/03 09:46:45;;;;;;;6.03;4.95;;;;;;;;;;4991706;28;20411;-69
2021/07/03 09:49:20;;;;;;;6.43;4.45;;;;;;;;;;4990686;28;20054;-70
2021/07/03 09:51:47;;;;;;;5.47;4.40;;;;;;;;;;4991694;28;20142;-66
2021/07/03 09:54:18;;;;;;;6.80;4.63;;;;;;;;;;4991834;28;20480;-67
2021/07/03 09:56:45;;;;;;;5.40;4.78;;;;;;;;;;4987790;28;20133;-66
2021/07/03 09:59:12;;;;;;;5.28;4.72;;;;;;;;;;4990341;28;20073;-64
2021/07/03 10:01:43;;;;;;;4.97;4.57;;;;;;;;;;4991381;28;20042;-64
2021/07/03 10:04:11;;;;;;;6.30;4.55;;;;;;;;;;4989507;28;20587;-64
2021/07/03 10:06:42;;;;;;;4.85;3.95;;;;;;;;;;4989690;28;20453;-64
2021/07/03 10:09:12;;;;;;;5.22;4.72;;;;;;;;;;4990259;28;20528;-64
2021/07/03 10:11:45;;;;;;;5.25;4.72;;;;;;;;;;4974317;28;20101;-65
2021/07/03 10:14:12;;;;;;;6.03;4.85;;;;;;;;;;4983833;28;20133;-64
2021/07/03 10:16:39;;;;;;;6.20;5.07;;;;;;;;;;4990576;28;20085;-65
2021/07/03 10:19:13;;;;;;;9.95;5.10;;;;;;;;;;4991335;28;20058;-65
2021/07/03 10:21:41;;;;;;;5.68;4.95;;;;;;;;;;4990152;28;20058;-65
2021/07/03 10:24:16;;;;;;;6.60;5.50;;;;;;;;;;4989105;28;20092;-65
2021/07/03 10:26:43;;;;;;;6.97;4.88;;;;;;;;;;4985810;28;20575;-65
2021/07/03 10:29:23;;;;;;;5.40;4.75;;;;;;;;;;4989301;28;20080;-66
2021/07/03 10:31:53;;;;;;;5.25;4.53;;;;;;;;;;4991196;28;20456;-65
2021/07/03 10:34:31;;;;;;;8.02;5.07;;;;;;;;;;4991623;28;20050;-65
2021/07/03 10:37:08;;;;;;;5.57;5.00;;;;;;;;;;4989824;28;20101;-65
2021/07/03 10:39:35;;;;;;;5.25;4.78;;;;;;;;;;4989959;28;20058;-65
2021/07/03 10:42:01;;;;;;;5.63;4.75;;;;;;;;;;4991306;28;20517;-65
2021/07/03 10:44:41;;;;;;;6.35;4.40;;;;;;;;;;4991289;28;20101;-65
2021/07/03 10:47:10;;;;;;;5.65;4.57;;;;;;;;;;4988862;28;20058;-65
2021/07/03 10:49:38;;;;;;;5.90;4.75;;;;;;;;;;4991029;28;20050;-65
2021/07/03 10:52:15;;;;;;;5.43;4.88;;;;;;;;;;4990910;28;20497;-65
2021/07/03 10:54:44;;;;;;;5.15;4.47;;;;;;;;;;4991246;28;20078;-65
2021/07/03 10:57:11;;;;;;;5.38;4.28;;;;;;;;;;4990881;28;20047;-65
2021/07/03 10:59:39;;;;;;;4.78;4.30;;;;;;;;;;4991192;28;20077;-65
2021/07/03 11:02:13;;;;;;;4.90;4.40;;;;;;;;;;4991368;28;20042;-65
2021/07/03 11:04:46;;;;;;;4.93;4.50;;;;;;;;;;4990962;28;20074;-65
2021/07/03 11:07:14;;;;;;;5.85;4.90;;;;;;;;;;4992889;28;20092;-65
2021/07/03 11:09:42;;;;;;;6.85;4.93;;;;;;;;;;4995159;28;20523;-64
2021/07/03 11:12:20;;;;;;;4.57;4.18;;;;;;;;;;4994907;28;20081;-65
2021/07/03 11:14:57;;;;;;;5.70;4.82;;;;;;;;;;4995718;28;20090;-65
2021/07/03 11:17:26;;;;;;;6.18;4.72;;;;;;;;;;4995291;28;20078;-65
2021/07/03 11:19:54;;;;;;;4.78;4.15;;;;;;;;;;4990680;28;20050;-65
2021/07/03 11:22:23;;;;;;;4.85;4.30;;;;;;;;;;4995160;28;20086;-64
2021/07/03 11:24:55;;;;;;;4.85;4.30;;;;;;;;;;4994941;28;20394;-65
2021/07/03 11:27:38;;;;;;;6.72;4.38;;;;;;;;;;4993070;28;20058;-65
2021/07/03 11:30:18;;;;;;;;;;;;;;;;;;4995466;28;20081;-65
2021/07/03 11:32:55;;;;;;;7.57;4.32;;;;;;;;;;4994345;28;19925;-65
2021/07/03 11:35:22;;;;;;;4.72;4.20;;;;;;;;;;4991122;28;20042;-65
2021/07/03 11:37:49;;;;;;;4.75;4.25;;;;;;;;;;4993458;28;20137;-65
2021/07/03 11:40:23;;;;;;;4.38;3.97;;;;;;;;;;4994568;28;20521;-65
2021/07/03 11:42:52;;;;;;;5.30;4.03;;;;;;;;;;4992466;28;20086;-65
2021/07/03 11:45:22;;;;;;;4.57;3.85;;;;;;;;;;4992899;28;20532;-65
2021/07/03 11:47:51;;;;;;;6.28;4.47;;;;;;;;;;4994681;28;20078;-65
2021/07/03 11:50:20;;;;;;;6.05;4.30;;;;;;;;;;4994150;28;20473;-65
2021/07/03 11:52:51;;;;;;;4.95;3.97;;;;;;;;;;4990805;28;20078;-65
2021/07/03 11:55:26;;;;;;;5.05;3.83;;;;;;;;;;4993961;28;20386;-65
2021/07/03 11:57:52;;;;;;;4.30;3.90;;;;;;;;;;4993865;28;20081;-65
2021/07/03 12:00:30;;;;;;;4.75;4.28;;;;;;;;;;4993150;28;20142;-64
2021/07/03 12:02:59;;;;;;;4.70;4.30;;;;;;;;;;4993994;28;20046;-65
2021/07/03 12:05:34;;;;;;;3.70;3.38;;;;;;;;;;4990283;28;20081;-65
2021/07/03 12:08:05;;;;;;;5.35;3.58;;;;;;;;;;4946903;28;20074;-65
2021/07/03 12:10:47;;;;;;;3.60;3.30;;;;;;;;;;4975005;28;20069;-65
2021/07/03 12:13:22;;;;;;;6.72;4.13;;;;;;;;;;5011682;28;20457;-65
2021/07/03 12:15:49;;;;;;;3.88;3.40;;;;;;;;;;5012505;28;20077;-65
2021/07/03 12:18:34;;;;;;;5.47;3.38;;;;;;;;;;5012314;28;20057;-65
2021/07/03 12:21:26;;;;;;;3.60;3.25;;;;;;;;;;5011395;28;20133;-65
2021/07/03 12:23:55;;;;;;;3.58;3.28;;;;;;;;;;5011193;28;20081;-65
2021/07/03 12:26:26;;;;;;;4.80;3.30;;;;;;;;;;5011183;28;20045;-65
2021/07/03 12:28:57;;;;;;;4.68;3.20;;;;;;;;;;5013491;28;20472;-65
2021/07/03 12:31:32;;;;;;;3.40;3.10;;;;;;;;;;5013208;28;20076;-65
2021/07/03 12:34:09;;;;;;;3.90;3.42;;;;;;;;;;5013449;28;20054;-65
2021/07/03 12:36:42;;;;;;;4.03;3.22;;;;;;;;;;5013242;28;20050;-65
2021/07/03 12:39:18;;;;;;;3.65;2.90;;;;;;;;;;5013368;28;20057;-65
2021/07/03 12:41:47;;;;;;;4.60;3.42;;;;;;;;;;5013374;28;20112;-81
2021/07/03 12:44:14;;;;;;;3.58;2.70;;;;;;;;;;5014534;28;20046;-67
2021/07/03 12:46:41;;;;;;;4.32;3.35;;;;;;;;;;5012264;28;20073;-65
2021/07/03 12:49:08;;;;;;;4.05;3.05;;;;;;;;;;5009187;28;20081;-65
2021/07/03 12:51:40;;;;;;;3.63;3.33;;;;;;;;;;5013031;28;20505;-65
2021/07/03 12:54:07;;;;;;;3.57;3.27;;;;;;;;;;5013242;28;20077;-65
2021/07/03 12:56:34;;;;;;;3.30;3.00;;;;;;;;;;5009425;28;20388;-65
2021/07/03 12:59:06;;;;;;;2.92;2.70;;;;;;;;;;5012161;28;20069;-65
2021/07/03 13:01:33;;;;;;;;;;;;;;;;;;5013416;28;20428;-65
2021/07/03 13:04:00;;;;;;;3.67;3.38;;;;;;;;;;5012163;28;20008;-65
2021/07/03 13:06:31;;;;;;;2.67;2.47;;;;;;;;;;5012933;28;20060;-65
2021/07/03 13:08:58;;;;;;;3.13;2.83;;;;;;;;;;5010171;28;20459;-66
2021/07/03 13:11:29;;;;;;;3.38;2.72;;;;;;;;;;5012613;28;20588;-65
2021/07/03 13:13:55;;;;;;;;;;;;;;;;;;5012987;28;20123;-65
2021/07/03 13:16:22;;;;;;;2.85;2.60;;;;;;;;;;5011985;28;19995;-65
2021/07/03 13:18:49;;;;;;;3.38;2.90;;;;;;;;;;5008608;28;20137;-65
2021/07/03 13:21:16;;;;;;;3.75;3.08;;;;;;;;;;5001503;28;20086;-66
2021/07/03 13:23:43;;;;;;;3.72;3.03;;;;;;;;;;5006659;28;20085;-65
2021/07/03 13:26:11;;;;;;;3.25;3.00;;;;;;;;;;5012738;28;20077;-64
2021/07/03 13:28:39;;;;;;;3.78;3.20;;;;;;;;;;5010200;28;20424;-66
2021/07/03 13:31:06;;;;;;;3.70;3.13;;;;;;;;;;5009596;28;20104;-65
2021/07/03 13:33:35;;;;;;;4.20;3.80;;;;;;;;;;5013304;28;20085;-66
2021/07/03 13:36:03;;;;;;;3.47;2.95;;;;;;;;;;5004151;28;20125;-66
2021/07/03 13:38:29;;;;;;;3.08;2.85;;;;;;;;;;5012472;28;20084;-66
2021/07/03 13:40:56;;;;;;;3.40;3.10;;;;;;;;;;5012094;28;20057;-64
2021/07/03 13:43:22;;;;;;;3.22;3.03;;;;;;;;;;5012368;28;20134;-65
2021/07/03 13:45:49;;;;;;;3.00;2.70;;;;;;;;;;5011781;28;20085;-66
2021/07/03 13:48:20;;;;;;;2.97;2.78;;;;;;;;;;5011430;28;20133;-66
2021/07/03 13:50:48;;;;;;;2.97;2.78;;;;;;;;;;5011786;28;20104;-66
2021/07/03 13:53:18;;;;;;;2.95;2.65;;;;;;;;;;5011047;28;20108;-66
2021/07/03 13:55:45;;;;;;;4.15;3.20;;;;;;;;;;5010910;28;20535;-66
2021/07/03 13:58:11;;;;;;;2.92;2.72;;;;;;;;;;5011189;28;20093;-65
2021/07/03 14:00:38;;;;;;;3.17;2.80;;;;;;;;;;5011553;28;20311;-66
2021/07/03 14:03:12;;;;;;;2.92;2.72;;;;;;;;;;5010870;28;20536;-66
2021/07/03 14:05:39;;;;;;;3.72;2.90;;;;;;;;;;5009265;28;20524;-66
2021/07/03 14:08:05;;;;;;;2.67;2.47;;;;;;;;;;5009986;28;20466;-66
2021/07/03 14:10:32;;;;;;;3.35;3.00;;;;;;;;;;5011564;28;20096;-66
2021/07/03 14:12:59;;;;;;;3.08;2.88;;;;;;;;;;5011080;28;20054;-66
2021/07/03 14:15:27;;;;;;;3.40;3.10;;;;;;;;;;5009723;28;20038;-66
2021/07/03 14:17:54;;;;;;;3.03;2.58;;;;;;;;;;5011545;28;20081;-66
2021/07/03 14:20:20;;;;;;;3.80;2.90;;;;;;;;;;5011175;28;20092;-74
2021/07/03 14:22:47;;;;;;;3.33;3.08;;;;;;;;;;5013057;28;20052;-66
2021/07/03 14:25:14;;;;;;;2.63;2.42;;;;;;;;;;5011038;28;20085;-66
2021/07/03 14:27:40;;;;;;;2.70;2.50;;;;;;;;;;5010377;28;20100;-66
2021/07/03 14:30:07;;;;;;;3.28;3.08;;;;;;;;;;5011054;28;20084;-66
2021/07/03 14:32:34;;;;;;;3.08;2.60;;;;;;;;;;5011131;28;20054;-66
2021/07/03 14:35:01;;;;;;;3.00;2.70;;;;;;;;;;5011221;28;20128;-66
2021/07/03 14:37:27;;;;;;;2.90;2.70;;;;;;;;;;5010595;28;20053;-66
2021/07/03 14:39:54;;;;;;;3.40;3.10;;;;;;;;;;5011419;28;20088;-65
2021/07/03 14:42:21;;;;;;;3.65;3.35;;;;;;;;;;5010358;28;20185;-66
2021/07/03 14:44:47;;;;;;;3.30;2.88;;;;;;;;;;5011082;28;20469;-67